Time;durP1;ratioP1;P1;durP2;ratioP2;P2;SDS_P1;SDS_P2;PMS_P1;PMS_P2;Temp;Humidity;BMP_temperature;BMP_pressure;BME280_temperature;BME280_humidity;BME280_pressure;Samples;Min_cycle;Max_cycle;Signal;HPM_P1;HPM_P2
2021/12/26 00:02:34;;;;;;;9.50;6.43;;;22.30;57.40;;;;;;7903577;28;20203;-61
2021/12/26 00:06:28;;;;;;;10.57;6.50;;;22.20;57.30;;;;;;7903809;28;20177;-61
2021/12/26 00:10:16;;;;;;;8.73;5.82;;;22.20;57.20;;;;;;7901335;28;20226;-61
2021/12/26 00:14:02;;;;;;;11.68;5.97;;;22.30;57.20;;;;;;7903173;28;20637;-61
2021/12/26 00:17:48;;;;;;;10.15;5.28;;;22.20;57.00;;;;;;7902370;28;20206;-61
2021/12/26 00:21:34;;;;;;;9.70;5.93;;;22.30;57.00;;;;;;7902840;28;20291;-61
2021/12/26 00:25:19;;;;;;;9.88;5.47;;;22.20;56.90;;;;;;7902852;28;20233;-61
2021/12/26 00:29:05;;;;;;;9.63;5.50;;;22.20;56.90;;;;;;7901946;28;20235;-61
2021/12/26 00:32:51;;;;;;;8.23;5.65;;;22.20;56.90;;;;;;7902587;28;20242;-61
2021/12/26 00:36:36;;;;;;;9.77;6.18;;;22.20;56.90;;;;;;7902587;28;20176;-61
2021/12/26 00:40:23;;;;;;;9.55;5.88;;;22.20;56.70;;;;;;7901685;28;20185;-61
2021/12/26 00:44:09;;;;;;;12.05;5.97;;;22.20;56.40;;;;;;7902385;28;20189;-61
2021/12/26 00:47:55;;;;;;;9.82;5.82;;;22.10;56.20;;;;;;7901520;28;20251;-61
2021/12/26 00:51:40;;;;;;;11.80;6.05;;;22.20;56.20;;;;;;7901821;28;20219;-61
2021/12/26 00:55:27;;;;;;;12.35;5.95;;;22.10;56.10;;;;;;7902104;28;20207;-61
2021/12/26 00:59:13;;;;;;;8.18;5.68;;;22.10;55.80;;;;;;7901264;28;20677;-61
2021/12/26 01:03:01;;;;;;;7.88;5.35;;;22.10;55.80;;;;;;7901700;28;20600;-61
2021/12/26 01:06:47;;;;;;;9.15;5.70;;;22.10;55.80;;;;;;7901652;28;20566;-61
2021/12/26 01:10:41;;;;;;;11.15;5.70;;;22.10;55.60;;;;;;7900931;28;20266;-60
2021/12/26 01:14:30;;;;;;;7.90;5.57;;;22.00;55.60;;;;;;7901717;28;20195;-60
2021/12/26 01:18:17;;;;;;;7.95;5.30;;;22.00;55.60;;;;;;7901109;28;20177;-61
2021/12/26 01:22:02;;;;;;;10.15;5.82;;;22.00;55.60;;;;;;7901598;28;20208;-61
2021/12/26 01:25:49;;;;;;;8.07;5.28;;;22.00;55.60;;;;;;7901299;28;20183;-61
2021/12/26 01:29:36;;;;;;;11.80;5.20;;;22.00;55.60;;;;;;7900333;28;20226;-61
2021/12/26 01:33:22;;;;;;;7.25;4.80;;;22.00;55.60;;;;;;7901001;28;20276;-61
2021/12/26 01:37:08;;;;;;;8.23;5.05;;;21.90;55.60;;;;;;7900639;28;20275;-61
2021/12/26 01:40:56;;;;;;;8.55;4.63;;;21.90;55.70;;;;;;7897767;28;20196;-61
2021/12/26 01:44:42;;;;;;;7.20;4.40;;;21.90;55.90;;;;;;7900811;28;20195;-61
2021/12/26 01:48:28;;;;;;;7.85;4.63;;;21.90;56.00;;;;;;7899959;28;20172;-61
2021/12/26 01:52:13;;;;;;;6.28;4.38;;;21.90;56.00;;;;;;7900463;28;20220;-60
2021/12/26 01:55:59;;;;;;;7.30;4.50;;;21.90;56.10;;;;;;7900736;28;20173;-62
2021/12/26 01:59:46;;;;;;;7.22;4.20;;;21.80;56.10;;;;;;7899830;28;20184;-61
2021/12/26 02:03:32;;;;;;;6.00;4.13;;;21.80;56.20;;;;;;7900656;28;20208;-61
2021/12/26 02:07:18;;;;;;;5.40;4.10;;;21.80;56.20;;;;;;7900502;28;20176;-61
2021/12/26 02:11:04;;;;;;;7.32;4.40;;;21.80;56.20;;;;;;7899677;28;20218;-61
2021/12/26 02:14:49;;;;;;;6.07;3.90;;;21.80;56.20;;;;;;7900225;28;20660;-61
2021/12/26 02:18:35;;;;;;;6.25;4.32;;;21.80;56.20;;;;;;7899798;28;20176;-61
2021/12/26 02:22:28;;;;;;;7.68;4.18;;;21.70;56.30;;;;;;7900314;28;20196;-61
2021/12/26 02:30:18;;;;;;;5.55;3.72;;;21.70;56.60;;;;;;7899772;28;20216;-61
2021/12/26 02:34:04;;;;;;;6.28;3.88;;;21.70;56.50;;;;;;7900141;28;20211;-60
2021/12/26 02:37:50;;;;;;;6.88;4.15;;;21.70;56.60;;;;;;7899330;28;20196;-61
2021/12/26 02:41:35;;;;;;;6.63;4.32;;;21.70;56.70;;;;;;7900024;28;20840;-61
2021/12/26 02:45:21;;;;;;;6.20;3.55;;;21.70;56.70;;;;;;7900023;28;20596;-61
2021/12/26 02:49:07;;;;;;;4.85;3.45;;;21.70;56.60;;;;;;7899949;28;20180;-61
2021/12/26 02:52:57;;;;;;;5.85;3.60;;;21.60;56.60;;;;;;7906006;28;20208;-60
2021/12/26 02:56:42;;;;;;;5.78;3.65;;;21.60;56.70;;;;;;7905617;28;20168;-60
2021/12/26 03:00:31;;;;;;;6.22;4.15;;;21.60;56.70;;;;;;7904816;28;20224;-59
2021/12/26 03:04:16;;;;;;;5.32;3.42;;;21.60;56.90;;;;;;7905346;28;20196;-60
2021/12/26 03:08:03;;;;;;;6.82;3.85;;;21.60;56.70;;;;;;7904571;28;20192;-59
2021/12/26 03:11:50;;;;;;;5.22;3.65;;;21.50;56.50;;;;;;7904950;28;20926;-60
2021/12/26 03:15:37;;;;;;;6.82;4.20;;;21.50;56.60;;;;;;7905030;28;20185;-60
2021/12/26 03:19:23;;;;;;;6.82;4.10;;;21.50;56.70;;;;;;7904182;28;20183;-60
2021/12/26 03:23:10;;;;;;;5.82;3.90;;;21.50;56.80;;;;;;7904713;28;20700;-60
2021/12/26 03:27:01;;;;;;;5.88;4.00;;;21.50;57.00;;;;;;7904742;28;20184;-60
2021/12/26 03:30:47;;;;;;;5.85;3.20;;;21.50;56.90;;;;;;7903718;28;20214;-60
2021/12/26 03:34:32;;;;;;;5.63;3.80;;;21.50;56.90;;;;;;7904427;28;20173;-61
2021/12/26 03:38:19;;;;;;;6.35;3.80;;;21.50;57.00;;;;;;7903665;28;20229;-60
2021/12/26 03:42:05;;;;;;;6.20;3.70;;;21.50;56.80;;;;;;7903801;28;20549;-60
2021/12/26 03:45:53;;;;;;;5.80;3.72;;;21.50;56.60;;;;;;7904097;28;20192;-61
2021/12/26 03:49:38;;;;;;;8.15;4.05;;;21.50;56.50;;;;;;7903219;28;20204;-60
2021/12/26 03:53:25;;;;;;;5.68;3.67;;;21.50;56.70;;;;;;7903706;28;20245;-61
2021/12/26 03:57:10;;;;;;;4.90;3.67;;;21.50;56.80;;;;;;7903819;28;20204;-61
2021/12/26 04:00:56;;;;;;;4.45;3.50;;;21.50;56.90;;;;;;7902334;28;20197;-60
2021/12/26 04:04:43;;;;;;;4.90;3.03;;;21.60;57.10;;;;;;7903619;28;20215;-60
2021/12/26 04:08:28;;;;;;;6.03;3.28;;;21.60;57.10;;;;;;7902883;28;20204;-59
2021/12/26 04:12:14;;;;;;;5.75;3.60;;;21.60;57.00;;;;;;7903654;28;20216;-59
2021/12/26 04:15:59;;;;;;;4.97;3.45;;;21.60;57.00;;;;;;7903500;28;20249;-60
2021/12/26 04:19:45;;;;;;;5.75;3.40;;;21.70;57.00;;;;;;7902539;28;20548;-60
2021/12/26 04:23:32;;;;;;;5.13;3.47;;;21.70;57.00;;;;;;7902993;28;20204;-59
2021/12/26 04:27:18;;;;;;;4.68;3.58;;;21.70;56.90;;;;;;7903083;28;20173;-60
2021/12/26 04:31:03;;;;;;;5.07;3.40;;;21.70;56.80;;;;;;7902017;28;20273;-60
2021/12/26 04:34:49;;;;;;;5.70;3.80;;;21.70;56.80;;;;;;7902717;28;20173;-60
2021/12/26 04:38:35;;;;;;;5.30;3.15;;;21.70;56.70;;;;;;7901878;28;20185;-60
2021/12/26 04:42:21;;;;;;;5.03;3.20;;;21.70;56.70;;;;;;7902387;28;20621;-60
2021/12/26 04:46:08;;;;;;;6.05;3.75;;;21.70;56.70;;;;;;7902328;28;20176;-60
2021/12/26 04:49:54;;;;;;;5.03;3.30;;;21.70;56.60;;;;;;7901252;28;20200;-61
2021/12/26 04:53:40;;;;;;;6.25;3.25;;;21.70;56.60;;;;;;7902144;28;20191;-60
2021/12/26 04:57:26;;;;;;;4.97;3.42;;;21.70;56.60;;;;;;7902185;28;20176;-60
2021/12/26 05:01:11;;;;;;;4.82;3.25;;;21.80;56.60;;;;;;7901557;28;20203;-59
2021/12/26 05:04:57;;;;;;;5.25;3.42;;;21.70;56.60;;;;;;7901787;28;20569;-60
2021/12/26 05:08:42;;;;;;;4.78;3.55;;;21.70;56.60;;;;;;7900673;28;20539;-61
2021/12/26 05:12:28;;;;;;;7.38;3.70;;;21.70;56.50;;;;;;7842776;28;20221;-60
2021/12/26 05:16:13;;;;;;;4.72;3.08;;;21.70;56.60;;;;;;7841670;28;20826;-61
2021/12/26 05:19:59;;;;;;;6.20;3.30;;;21.70;56.60;;;;;;7859952;28;20551;-59
2021/12/26 05:23:44;;;;;;;5.45;3.50;;;21.60;56.60;;;;;;7847080;28;20189;-61
2021/12/26 05:27:30;;;;;;;4.88;3.13;;;21.70;56.70;;;;;;7870284;28;20188;-61
2021/12/26 05:31:15;;;;;;;4.70;3.20;;;21.70;56.70;;;;;;7886705;28;20347;-61
2021/12/26 05:35:01;;;;;;;7.55;3.65;;;21.60;56.70;;;;;;7855807;28;20712;-61
2021/12/26 05:38:46;;;;;;;5.60;3.10;;;21.60;56.80;;;;;;7837459;28;20564;-60
2021/12/26 05:42:33;;;;;;;5.85;3.08;;;21.60;56.90;;;;;;7839217;28;20556;-60
2021/12/26 05:46:18;;;;;;;8.15;3.38;;;21.60;56.80;;;;;;7869805;28;20239;-61
2021/12/26 05:50:08;;;;;;;7.00;3.53;;;21.60;56.90;;;;;;7868861;28;20241;-60
2021/12/26 05:53:53;;;;;;;4.85;3.38;;;21.60;57.00;;;;;;7869843;28;20192;-60
2021/12/26 05:57:39;;;;;;;5.07;3.00;;;21.50;57.00;;;;;;7868894;28;20178;-61
2021/12/26 06:01:25;;;;;;;5.22;3.05;;;21.50;57.00;;;;;;7841238;28;20209;-60
2021/12/26 06:05:10;;;;;;;4.82;3.17;;;21.50;57.10;;;;;;7838959;28;20561;-60
2021/12/26 06:08:56;;;;;;;21.42;3.72;;;21.50;57.20;;;;;;7845877;28;20193;-60
2021/12/26 06:12:41;;;;;;;11.85;3.42;;;21.50;57.30;;;;;;7869059;28;20284;-61
2021/12/26 06:16:27;;;;;;;14.15;3.65;;;21.50;57.30;;;;;;7869373;28;20230;-59
2021/12/26 06:20:16;;;;;;;7.55;3.00;;;21.50;57.20;;;;;;7868149;28;20203;-59
2021/12/26 06:24:01;;;;;;;11.73;3.30;;;21.50;57.50;;;;;;7869744;28;20550;-60
2021/12/26 06:27:47;;;;;;;12.65;3.40;;;21.40;57.30;;;;;;7874425;28;20207;-60
2021/12/26 06:31:33;;;;;;;8.02;3.30;;;21.40;57.10;;;;;;7886925;28;20220;-60
2021/12/26 06:35:19;;;;;;;23.77;3.45;;;21.50;57.60;;;;;;7906183;28;20547;-59
2021/12/26 06:39:05;;;;;;;19.38;3.75;;;21.50;57.50;;;;;;7905224;28;20326;-59
2021/12/26 06:42:51;;;;;;;23.08;3.85;;;21.50;57.50;;;;;;7905932;28;20203;-60
2021/12/26 06:46:37;;;;;;;8.95;3.50;;;21.50;57.70;;;;;;7905870;28;20172;-60
2021/12/26 06:50:22;;;;;;;22.98;3.47;;;21.40;57.80;;;;;;7904839;28;20204;-60
2021/12/26 06:54:08;;;;;;;18.58;4.03;;;21.40;57.80;;;;;;7905685;28;20165;-61
2021/12/26 06:57:53;;;;;;;16.88;3.90;;;21.40;57.80;;;;;;7904737;28;20177;-60
2021/12/26 07:01:39;;;;;;;11.63;4.18;;;21.40;57.80;;;;;;7905578;28;20337;-59
2021/12/26 07:05:24;;;;;;;11.52;4.50;;;21.40;57.80;;;;;;7889876;28;20190;-59
2021/12/26 07:09:10;;;;;;;13.27;5.38;;;21.30;51.50;;;;;;7841866;28;20174;-60
2021/12/26 07:12:56;;;;;;;18.67;5.70;;;21.00;53.50;;;;;;7841174;28;20340;-60
2021/12/26 07:16:41;;;;;;;12.25;4.43;;;21.00;55.50;;;;;;7842611;28;20264;-59
2021/12/26 07:20:27;;;;;;;17.25;4.95;;;21.00;56.50;;;;;;7841805;28;20205;-60
2021/12/26 07:24:12;;;;;;;17.13;4.63;;;21.00;56.80;;;;;;7842383;28;20261;-60
2021/12/26 07:27:58;;;;;;;16.00;4.50;;;21.10;57.10;;;;;;7841755;28;20181;-61
2021/12/26 07:31:43;;;;;;;9.75;4.80;;;21.10;57.20;;;;;;7842346;28;20239;-61
2021/12/26 07:35:29;;;;;;;8.38;4.35;;;21.20;58.10;;;;;;7841387;28;20171;-60
2021/12/26 07:39:14;;;;;;;10.82;4.78;;;21.20;57.40;;;;;;7841663;28;20178;-61
2021/12/26 07:43:00;;;;;;;12.27;5.43;;;21.20;57.20;;;;;;7842174;28;20265;-61
2021/12/26 07:46:45;;;;;;;15.13;5.50;;;21.20;57.10;;;;;;7841759;28;20185;-61
2021/12/26 07:50:31;;;;;;;15.85;5.45;;;21.30;57.40;;;;;;7840626;28;20797;-61
2021/12/26 07:54:17;;;;;;;16.92;6.10;;;21.30;57.40;;;;;;7841137;28;20180;-60
2021/12/26 07:58:03;;;;;;;10.07;5.47;;;21.30;57.40;;;;;;7840518;28;20185;-58
2021/12/26 08:01:48;;;;;;;21.17;6.22;;;21.30;57.10;;;;;;7841317;28;20201;-59
2021/12/26 08:05:34;;;;;;;18.55;7.05;;;21.30;53.20;;;;;;7841486;28;20217;-61
2021/12/26 08:09:20;;;;;;;11.18;6.10;;;21.10;53.70;;;;;;7840239;28;20212;-60
2021/12/26 08:13:05;;;;;;;13.93;5.90;;;21.10;55.30;;;;;;7840068;28;20247;-60
2021/12/26 08:16:51;;;;;;;13.48;5.68;;;21.10;56.20;;;;;;7841181;28;20259;-61
2021/12/26 08:20:37;;;;;;;9.82;5.55;;;21.20;56.60;;;;;;7838236;28;20209;-61
2021/12/26 08:24:25;;;;;;;10.57;5.60;;;21.20;56.60;;;;;;7840587;28;20178;-60
2021/12/26 08:28:10;;;;;;;12.27;5.60;;;21.30;56.70;;;;;;7839610;28;20173;-61
2021/12/26 08:31:59;;;;;;;11.65;5.50;;;21.30;56.80;;;;;;7841578;28;20217;-61
2021/12/26 08:35:46;;;;;;;13.38;5.70;;;21.30;56.80;;;;;;7870373;28;20216;-61
2021/12/26 08:39:34;;;;;;;8.48;4.72;;;21.40;56.70;;;;;;7869515;28;20191;-60
2021/12/26 08:43:20;;;;;;;12.63;5.60;;;21.40;57.40;;;;;;7870083;28;20685;-60
2021/12/26 08:47:07;;;;;;;13.15;5.82;;;21.50;56.80;;;;;;7869363;28;20555;-60
2021/12/26 08:50:55;;;;;;;11.63;5.82;;;21.40;56.90;;;;;;7869945;28;20209;-60
2021/12/26 08:54:41;;;;;;;10.38;5.47;;;21.40;56.90;;;;;;7871546;28;20180;-60
2021/12/26 08:58:26;;;;;;;13.60;6.35;;;21.50;57.00;;;;;;7870139;28;20180;-61
2021/12/26 09:02:13;;;;;;;13.13;6.30;;;21.50;57.00;;;;;;7870990;28;20225;-61
2021/12/26 09:05:58;;;;;;;11.80;6.85;;;21.50;57.00;;;;;;7870535;28;20223;-60
2021/12/26 09:09:46;;;;;;;12.45;6.63;;;21.50;57.00;;;;;;7869503;28;20211;-61
2021/12/26 09:13:33;;;;;;;12.20;7.00;;;21.50;57.00;;;;;;7870103;28;20223;-61
2021/12/26 09:17:19;;;;;;;16.80;6.18;;;21.50;57.00;;;;;;7852053;28;20186;-60
2021/12/26 09:21:04;;;;;;;9.55;5.95;;;21.50;57.10;;;;;;7838369;28;20694;-61
2021/12/26 09:24:51;;;;;;;11.43;6.85;;;21.50;57.00;;;;;;7838814;28;20604;-61
2021/12/26 09:28:38;;;;;;;10.63;6.22;;;21.50;57.10;;;;;;7838152;28;20273;-61
2021/12/26 09:32:23;;;;;;;9.60;5.75;;;21.50;57.10;;;;;;7838574;28;20217;-61
2021/12/26 09:36:09;;;;;;;8.65;5.43;;;21.50;57.10;;;;;;7838429;28;20240;-61
2021/12/26 09:39:55;;;;;;;10.23;5.75;;;21.50;57.10;;;;;;7837752;28;20265;-61
2021/12/26 09:43:40;;;;;;;10.07;5.45;;;21.50;57.10;;;;;;7838384;28;20235;-60
2021/12/26 09:47:28;;;;;;;8.48;5.63;;;21.60;57.10;;;;;;7838361;28;20330;-61
2021/12/26 09:51:13;;;;;;;10.82;5.63;;;21.60;57.20;;;;;;7837980;28;20221;-62
2021/12/26 09:54:59;;;;;;;8.90;4.90;;;21.60;57.10;;;;;;7838278;28;20178;-61
2021/12/26 09:59:21;;;;;;;10.05;5.63;;;21.60;57.10;;;;;;7836846;28;20174;-61
2021/12/26 10:03:36;;;;;;;7.70;4.65;;;21.60;57.10;;;;;;7741892;28;20286;-61
2021/12/26 10:07:25;;;;;;;6.60;4.47;;;21.70;57.10;;;;;;7622908;29;20198;-60
2021/12/26 10:11:12;;;;;;;15.13;5.60;;;21.70;57.20;;;;;;7622286;29;20946;-61
2021/12/26 10:14:57;;;;;;;8.13;4.30;;;21.80;56.80;;;;;;7623139;29;20797;-61
2021/12/26 10:18:43;;;;;;;7.13;4.28;;;21.90;57.20;;;;;;7622418;29;20555;-61
2021/12/26 10:22:29;;;;;;;10.75;4.70;;;21.80;57.20;;;;;;7623064;29;20605;-61
2021/12/26 10:26:23;;;;;;;7.25;4.85;;;21.90;57.00;;;;;;7622965;29;20199;-61
2021/12/26 10:30:15;;;;;;;11.63;4.90;;;21.90;57.00;;;;;;7635111;29;20225;-61
2021/12/26 10:34:01;;;;;;;9.13;4.80;;;21.90;57.00;;;;;;7656715;29;20333;-61
2021/12/26 10:37:49;;;;;;;9.57;4.30;;;22.00;57.00;;;;;;7673663;28;20200;-61
2021/12/26 10:41:43;;;;;;;51.65;6.95;;;22.00;57.00;;;;;;7751386;28;20693;-60
2021/12/26 10:45:34;;;;;;;22.55;5.10;;;22.00;57.20;;;;;;7837557;28;20174;-61
2021/12/26 10:49:38;;;;;;;13.40;4.50;;;22.10;57.10;;;;;;7836666;28;20308;-61
2021/12/26 10:53:23;;;;;;;15.38;4.55;;;22.10;57.70;;;;;;7837153;28;20648;-61
2021/12/26 10:57:26;;;;;;;18.88;4.53;;;22.10;56.90;;;;;;7837187;28;20182;-60
2021/12/26 11:01:13;;;;;;;15.13;4.43;;;22.10;57.00;;;;;;7836750;28;20248;-62
2021/12/26 11:05:04;;;;;;;12.85;4.20;;;22.10;56.80;;;;;;7837060;28;20186;-62
2021/12/26 11:08:49;;;;;;;14.35;4.25;;;22.10;56.70;;;;;;7836517;28;20240;-61
2021/12/26 11:12:37;;;;;;;10.60;4.18;;;22.10;56.80;;;;;;7841591;28;20210;-61
2021/12/26 11:16:36;;;;;;;12.27;4.45;;;22.10;56.80;;;;;;7854674;28;20239;-61
2021/12/26 11:20:27;;;;;;;14.82;4.53;;;22.20;57.20;;;;;;7872867;28;20192;-61
2021/12/26 11:24:12;;;;;;;17.30;4.28;;;22.20;57.10;;;;;;7873381;28;20179;-61
2021/12/26 11:27:58;;;;;;;12.63;4.22;;;22.20;57.00;;;;;;7872603;28;20181;-61
2021/12/26 11:31:44;;;;;;;18.67;4.90;;;22.10;57.00;;;;;;7873051;28;20205;-61
2021/12/26 11:35:32;;;;;;;11.10;4.70;;;22.20;57.10;;;;;;7873104;28;20185;-62
2021/12/26 11:39:18;;;;;;;53.50;9.25;;;22.10;57.20;;;;;;7872260;28;20534;-62
2021/12/26 11:44:05;;;;;;;32.80;6.55;;;22.20;57.10;;;;;;7872986;28;20284;-61
2021/12/26 11:48:28;;;;;;;31.48;5.75;;;22.10;57.10;;;;;;7739642;28;20685;-61
2021/12/26 11:52:24;;;;;;;23.80;5.07;;;22.10;57.00;;;;;;7745494;28;20720;-61
2021/12/26 11:56:30;;;;;;;26.17;5.22;;;22.10;57.10;;;;;;7745589;28;20194;-61
2021/12/26 12:00:35;;;;;;;27.08;5.15;;;22.10;57.10;;;;;;7744690;28;20724;-61
2021/12/26 12:04:24;;;;;;;20.70;5.30;;;22.10;57.00;;;;;;7745411;28;20599;-61
2021/12/26 12:08:24;;;;;;;12.38;4.85;;;22.10;57.00;;;;;;7718324;28;20192;-60
2021/12/26 12:12:14;;;;;;;11.50;4.63;;;22.10;57.10;;;;;;7715052;28;20275;-61
2021/12/26 12:16:02;;;;;;;15.93;4.30;;;22.10;56.90;;;;;;7715215;28;20670;-61
2021/12/26 12:20:13;;;;;;;13.85;4.13;;;22.10;57.00;;;;;;7731191;28;20200;-62
2021/12/26 12:24:10;;;;;;;11.38;3.80;;;22.00;57.00;;;;;;7840382;28;20178;-62
2021/12/26 12:28:05;;;;;;;14.80;3.85;;;22.00;57.00;;;;;;7840149;28;20548;-60
2021/12/26 12:32:12;;;;;;;12.70;5.13;;;22.00;56.90;;;;;;7840488;28;20263;-60
2021/12/26 12:36:08;;;;;;;13.63;3.90;;;22.00;56.90;;;;;;7840170;28;20174;-61
2021/12/26 12:40:08;;;;;;;31.35;7.38;;;22.00;56.90;;;;;;7839454;28;20178;-60
2021/12/26 12:43:59;;;;;;;21.63;5.43;;;22.00;56.60;;;;;;7840133;28;20189;-61
2021/12/26 12:47:45;;;;;;;58.50;9.00;;;22.00;56.30;;;;;;7840147;28;20181;-60
2021/12/26 12:51:50;;;;;;;33.80;6.82;;;22.00;56.40;;;;;;7870580;28;20209;-61
2021/12/26 12:55:42;;;;;;;38.60;6.32;;;22.10;55.90;;;;;;7862805;28;20197;-61
2021/12/26 12:59:38;;;;;;;21.55;5.75;;;22.00;56.10;;;;;;7838896;28;20185;-62
2021/12/26 13:03:24;;;;;;;20.98;5.45;;;22.00;55.90;;;;;;7839452;28;20204;-62
2021/12/26 13:07:18;;;;;;;17.55;4.72;;;22.00;55.50;;;;;;7839333;28;20182;-61
2021/12/26 13:11:05;;;;;;;15.73;4.57;;;22.00;55.00;;;;;;7838463;28;20206;-61
2021/12/26 13:14:57;;;;;;;13.20;5.18;;;22.00;55.00;;;;;;7839388;28;20300;-61
2021/12/26 13:18:43;;;;;;;17.38;6.13;;;22.10;55.20;;;;;;7838339;28;20639;-62
2021/12/26 13:22:50;;;;;;;12.07;4.95;;;22.10;55.10;;;;;;7838814;28;20705;-61
2021/12/26 13:26:41;;;;;;;18.65;4.78;;;22.10;55.20;;;;;;7838894;28;20181;-62
2021/12/26 13:30:29;;;;;;;14.00;4.50;;;22.10;55.50;;;;;;7838030;28;20289;-62
2021/12/26 13:34:15;;;;;;;11.23;4.63;;;22.20;55.50;;;;;;7837829;28;20228;-61
2021/12/26 13:38:01;;;;;;;13.30;4.70;;;22.20;55.30;;;;;;7837791;28;20643;-61
2021/12/26 13:41:48;;;;;;;14.02;4.63;;;22.30;55.40;;;;;;7866937;28;20197;-62
2021/12/26 13:45:45;;;;;;;14.57;4.57;;;22.30;55.40;;;;;;7858554;28;20674;-62
2021/12/26 13:49:30;;;;;;;17.02;4.38;;;22.40;56.30;;;;;;7837528;28;20177;-61
2021/12/26 13:53:16;;;;;;;17.33;3.83;;;22.40;57.20;;;;;;7838182;28;20209;-62
2021/12/26 13:57:04;;;;;;;8.60;3.72;;;22.50;58.50;;;;;;7838153;28;20651;-62
2021/12/26 14:00:57;;;;;;;18.33;3.85;;;22.50;59.00;;;;;;7837380;28;20197;-62
2021/12/26 14:04:45;;;;;;;14.25;3.78;;;22.70;59.70;;;;;;7836161;28;20189;-62
2021/12/26 14:08:31;;;;;;;23.80;4.40;;;22.80;59.50;;;;;;7837437;28;20811;-62
2021/12/26 14:12:42;;;;;;;12.93;3.80;;;22.90;59.60;;;;;;7837808;28;20821;-62
2021/12/26 14:16:30;;;;;;;11.65;3.60;;;23.10;60.30;;;;;;7837621;28;20178;-61
2021/12/26 14:20:15;;;;;;;15.80;4.75;;;23.20;60.30;;;;;;7853136;28;20204;-62
2021/12/26 14:24:01;;;;;;;11.75;4.10;;;23.30;60.50;;;;;;7867756;28;20188;-62
2021/12/26 14:27:46;;;;;;;10.07;3.60;;;23.40;60.80;;;;;;7867088;28;20192;-62
2021/12/26 14:31:50;;;;;;;11.05;4.07;;;23.50;60.90;;;;;;7845905;28;20218;-59
2021/12/26 14:35:35;;;;;;;7.18;3.58;;;23.60;61.10;;;;;;7840425;28;20181;-59
2021/12/26 14:39:42;;;;;;;15.23;3.58;;;23.60;60.00;;;;;;7867014;28;20639;-61
2021/12/26 14:43:28;;;;;;;16.55;4.00;;;23.70;61.80;;;;;;7867528;28;20670;-60
2021/12/26 14:47:24;;;;;;;15.27;3.90;;;23.80;62.00;;;;;;7871856;28;20536;-62
2021/12/26 14:51:22;;;;;;;18.35;3.30;;;23.90;62.00;;;;;;7872632;28;20216;-61
2021/12/26 14:55:13;;;;;;;16.92;4.00;;;24.00;61.80;;;;;;7873682;28;20173;-61
2021/12/26 14:58:58;;;;;;;12.95;4.03;;;24.10;61.80;;;;;;7872638;28;20199;-61
2021/12/26 15:02:46;;;;;;;10.93;3.92;;;24.10;62.00;;;;;;7872961;28;20208;-61
2021/12/26 15:06:51;;;;;;;15.18;3.90;;;24.00;61.70;;;;;;7872616;28;20187;-61
2021/12/26 15:10:38;;;;;;;13.70;3.78;;;24.00;62.20;;;;;;7871969;28;20208;-61
2021/12/26 15:14:25;;;;;;;12.07;3.60;;;23.90;62.30;;;;;;7849255;28;20581;-62
2021/12/26 15:18:15;;;;;;;12.93;3.88;;;23.90;62.50;;;;;;7871810;28;20299;-61
2021/12/26 15:22:05;;;;;;;13.10;3.65;;;23.80;62.80;;;;;;7864603;28;20973;-61
2021/12/26 15:26:09;;;;;;;11.27;3.60;;;23.70;63.20;;;;;;7851180;28;20193;-61
2021/12/26 15:29:56;;;;;;;15.88;3.72;;;23.70;63.50;;;;;;7896502;28;20198;-62
2021/12/26 15:33:45;;;;;;;19.65;4.28;;;23.60;63.50;;;;;;7876734;28;20666;-62
2021/12/26 15:37:31;;;;;;;10.60;3.40;;;23.60;63.80;;;;;;7863871;28;20192;-61
2021/12/26 15:41:25;;;;;;;12.73;3.90;;;23.50;64.00;;;;;;7871536;28;20193;-61
2021/12/26 15:45:10;;;;;;;10.63;3.60;;;23.50;64.20;;;;;;7841162;28;20276;-62
2021/12/26 15:48:56;;;;;;;16.45;3.90;;;23.50;64.50;;;;;;7839843;28;20185;-61
2021/12/26 15:52:43;;;;;;;8.52;3.78;;;23.50;64.50;;;;;;7869516;28;20216;-62
2021/12/26 15:56:29;;;;;;;11.07;3.55;;;23.50;64.50;;;;;;7870584;28;20181;-62
2021/12/26 16:00:15;;;;;;;9.55;3.10;;;23.40;64.50;;;;;;7870859;28;20208;-61
2021/12/26 16:04:01;;;;;;;13.25;4.43;;;23.40;64.50;;;;;;7871150;28;20268;-62
2021/12/26 16:07:46;;;;;;;10.38;3.80;;;23.40;64.60;;;;;;7870457;28;20177;-61
2021/12/26 16:11:32;;;;;;;7.53;3.15;;;23.40;64.60;;;;;;7870909;28;20212;-62
2021/12/26 16:15:18;;;;;;;9.60;3.72;;;23.40;64.80;;;;;;7870641;28;20173;-62
2021/12/26 16:19:03;;;;;;;6.93;3.33;;;23.40;64.70;;;;;;7870254;28;20546;-60
2021/12/26 16:22:49;;;;;;;10.68;4.78;;;23.40;64.20;;;;;;7870885;28;20250;-59
2021/12/26 16:26:35;;;;;;;9.73;4.53;;;23.20;63.10;;;;;;7871250;28;20216;-61
2021/12/26 16:30:24;;;;;;;22.17;4.90;;;23.00;62.80;;;;;;7869941;28;20213;-62
2021/12/26 16:34:09;;;;;;;11.13;4.28;;;22.90;63.10;;;;;;7870120;28;20169;-59
2021/12/26 16:37:55;;;;;;;12.43;4.70;;;23.00;63.70;;;;;;7869551;28;20646;-60
2021/12/26 16:41:41;;;;;;;11.02;4.32;;;23.10;63.90;;;;;;7869949;28;20206;-61
2021/12/26 16:45:27;;;;;;;15.18;5.00;;;23.20;64.10;;;;;;7845198;28;20182;-61
2021/12/26 16:49:13;;;;;;;18.23;4.30;;;23.30;64.00;;;;;;7869263;28;20188;-62
2021/12/26 16:52:58;;;;;;;18.92;5.05;;;23.40;63.80;;;;;;7869174;28;20213;-62
2021/12/26 16:56:44;;;;;;;14.70;4.32;;;23.50;63.70;;;;;;7869378;28;20217;-62
2021/12/26 17:00:29;;;;;;;18.15;4.85;;;23.60;63.50;;;;;;7868631;28;20278;-61
2021/12/26 17:04:19;;;;;;;13.52;5.00;;;23.60;61.70;;;;;;7869109;28;20173;-62
2021/12/26 17:08:06;;;;;;;11.25;4.00;;;23.60;63.00;;;;;;7867852;28;20189;-62
2021/12/26 17:11:51;;;;;;;8.52;4.78;;;23.50;63.10;;;;;;7868891;28;20213;-62
2021/12/26 17:15:38;;;;;;;16.13;4.43;;;23.50;63.20;;;;;;7869056;28;20703;-61
2021/12/26 17:19:23;;;;;;;11.77;4.47;;;23.40;63.40;;;;;;7868326;28;20211;-61
2021/12/26 17:23:09;;;;;;;12.23;4.60;;;23.40;63.50;;;;;;7868808;28;20196;-61
2021/12/26 17:26:54;;;;;;;8.50;4.32;;;23.30;63.50;;;;;;7869323;28;20189;-61
2021/12/26 17:30:40;;;;;;;9.43;4.68;;;23.20;63.30;;;;;;7877772;28;20213;-62
2021/12/26 17:34:25;;;;;;;9.68;4.70;;;23.10;63.30;;;;;;7868251;28;20657;-61
2021/12/26 17:38:11;;;;;;;8.43;4.45;;;23.00;63.40;;;;;;7867561;28;20668;-60
2021/12/26 17:41:56;;;;;;;14.02;7.97;;;22.90;63.40;;;;;;7868050;28;20212;-60
2021/12/26 17:45:44;;;;;;;24.13;11.05;;;22.90;63.50;;;;;;7868303;28;20565;-61
2021/12/26 17:49:30;;;;;;;53.92;26.05;;;22.90;63.40;;;;;;7867350;28;20176;-60
2021/12/26 17:53:15;;;;;;;34.75;16.73;;;23.00;62.20;;;;;;7867752;28;20217;-61
2021/12/26 17:57:02;;;;;;;36.80;17.20;;;22.90;63.10;;;;;;7868047;28;20714;-61
2021/12/26 18:00:47;;;;;;;34.75;16.70;;;23.00;63.10;;;;;;7867109;28;20559;-61
2021/12/26 18:04:33;;;;;;;36.40;16.08;;;23.00;62.80;;;;;;7860187;28;20297;-61
2021/12/26 18:08:19;;;;;;;34.75;15.45;;;23.10;62.40;;;;;;7864983;28;20276;-61
2021/12/26 18:12:05;;;;;;;34.28;14.75;;;23.00;62.30;;;;;;7867402;28;20296;-61
2021/12/26 18:15:50;;;;;;;29.55;14.57;;;22.90;62.20;;;;;;7867791;28;20170;-61
2021/12/26 18:19:36;;;;;;;29.42;13.20;;;22.90;62.50;;;;;;7866925;28;20533;-62
2021/12/26 18:23:21;;;;;;;27.98;12.68;;;22.80;62.60;;;;;;7873981;28;20549;-62
2021/12/26 18:27:07;;;;;;;23.40;11.77;;;22.90;62.60;;;;;;7874478;28;20181;-60
2021/12/26 18:30:52;;;;;;;27.17;11.43;;;22.90;62.10;;;;;;7873222;28;20701;-63
2021/12/26 18:34:38;;;;;;;44.25;12.20;;;22.90;60.50;;;;;;7874162;28;20169;-61
2021/12/26 18:38:24;;;;;;;77.50;12.32;;;23.00;62.20;;;;;;7873378;28;20182;-60
2021/12/26 18:42:09;;;;;;;52.92;11.25;;;23.10;61.80;;;;;;7873155;28;20201;-60
2021/12/26 18:45:55;;;;;;;56.80;11.15;;;23.20;61.80;;;;;;7873427;28;20235;-61
2021/12/26 18:49:42;;;;;;;34.28;9.45;;;23.30;62.00;;;;;;7872681;28;20189;-61
2021/12/26 18:53:27;;;;;;;39.88;9.07;;;23.40;62.10;;;;;;7872727;28;20217;-61
2021/12/26 18:57:13;;;;;;;38.22;8.30;;;23.50;62.30;;;;;;7873180;28;20177;-62
2021/12/26 19:00:58;;;;;;;31.48;7.80;;;23.60;62.50;;;;;;7871809;28;20240;-61
2021/12/26 19:04:45;;;;;;;25.92;7.80;;;23.70;62.50;;;;;;7872954;28;20211;-61
2021/12/26 19:08:31;;;;;;;22.20;7.70;;;23.60;57.70;;;;;;7870817;28;20186;-62
2021/12/26 19:12:17;;;;;;;28.13;8.18;;;23.50;62.50;;;;;;7872187;28;20220;-61
2021/12/26 19:16:04;;;;;;;26.23;6.93;;;23.50;63.40;;;;;;7872412;28;20177;-61
2021/12/26 19:19:50;;;;;;;26.52;7.93;;;23.60;64.20;;;;;;7871727;28;20178;-62
2021/12/26 19:23:37;;;;;;;22.55;7.30;;;23.70;64.20;;;;;;7871891;28;20200;-61
2021/12/26 19:27:22;;;;;;;21.35;6.97;;;23.80;64.50;;;;;;7872362;28;20180;-60
2021/12/26 19:31:08;;;;;;;21.80;7.10;;;23.80;64.90;;;;;;7870128;28;20284;-61
2021/12/26 19:34:54;;;;;;;26.80;6.15;;;23.80;65.20;;;;;;7871105;28;20224;-62
2021/12/26 19:38:39;;;;;;;19.95;6.07;;;23.70;64.50;;;;;;7871154;28;20238;-61
2021/12/26 19:42:25;;;;;;;17.35;5.53;;;23.70;64.80;;;;;;7871497;28;20197;-62